createdAt,value
2023-02-12T00:03:09.074Z,97487.41
2023-02-12T00:08:12.442Z,97496.06
2023-02-12T00:13:16.120Z,97485.63
2023-02-12T00:18:18.701Z,97484.34
2023-02-12T00:23:21.128Z,97487.72
2023-02-12T00:28:23.557Z,97491.84
2023-02-12T00:33:26.053Z,97478.75
2023-02-12T00:38:28.530Z,97485.72
2023-02-12T00:43:31.149Z,97491.03
2023-02-12T00:48:33.615Z,97479.56
2023-02-12T00:53:36.003Z,97487.47
2023-02-12T00:58:38.418Z,97492.88
2023-02-12T01:03:40.964Z,97493.41
2023-02-12T01:08:43.373Z,97487.00
2023-02-12T01:13:45.792Z,97490.75
2023-02-12T01:18:48.234Z,97486.88
2023-02-12T01:23:50.669Z,97470.19
2023-02-12T01:28:53.039Z,97484.81
2023-02-12T01:33:55.407Z,97495.63
2023-02-12T01:38:57.986Z,97503.97
2023-02-12T01:44:00.564Z,97500.16
2023-02-12T01:49:03.015Z,97495.59
2023-02-12T01:54:05.555Z,97492.44
2023-02-12T01:59:07.935Z,97490.50
2023-02-12T02:04:10.195Z,97487.56
2023-02-12T02:09:12.747Z,97490.28
2023-02-12T02:14:32.583Z,97488.91
2023-02-12T02:19:35.224Z,97468.47
2023-02-12T02:24:37.552Z,97478.00
2023-02-12T02:29:39.893Z,97483.72
2023-02-12T02:34:42.204Z,97472.63
2023-02-12T02:39:44.533Z,97462.56
2023-02-12T02:44:46.898Z,97462.72
2023-02-12T02:49:49.379Z,97458.84
2023-02-12T02:54:51.747Z,97458.84
2023-02-12T02:59:54.032Z,97464.72
2023-02-12T03:04:56.556Z,97476.25
2023-02-12T03:09:59.545Z,97480.38
2023-02-12T03:15:02.093Z,97484.63
2023-02-12T03:20:04.513Z,97477.75
2023-02-12T03:25:09.607Z,97487.94
2023-02-12T03:30:12.182Z,97491.56
2023-02-12T03:35:14.505Z,97500.22
2023-02-12T03:40:16.797Z,97491.03
2023-02-12T03:45:19.150Z,97493.38
2023-02-12T03:50:21.414Z,97488.03
2023-02-12T03:55:23.703Z,97488.50
2023-02-12T04:00:26.102Z,97496.47
2023-02-12T04:05:28.502Z,97504.34
2023-02-12T04:10:30.786Z,97511.19
2023-02-12T04:15:33.292Z,97507.38
2023-02-12T04:20:35.802Z,97515.28
2023-02-12T04:25:38.395Z,97511.25
2023-02-12T04:30:40.956Z,97523.97
2023-02-12T04:35:43.430Z,97527.00
2023-02-12T04:40:45.850Z,97521.44
2023-02-12T04:45:48.201Z,97538.66
2023-02-12T04:50:50.492Z,97531.72
2023-02-12T04:55:53.048Z,97530.41
2023-02-12T05:00:55.478Z,97535.47
2023-02-12T05:05:57.929Z,97536.47
2023-02-12T05:11:00.374Z,97540.59
2023-02-12T05:16:03.436Z,97543.72
2023-02-12T05:21:05.808Z,97543.31
2023-02-12T05:26:08.081Z,97548.75
2023-02-12T05:31:10.525Z,97559.03
2023-02-12T05:36:12.855Z,97567.34
2023-02-12T05:41:15.120Z,97571.56
2023-02-12T05:46:17.445Z,97571.13
2023-02-12T05:51:20.241Z,97570.94
2023-02-12T05:56:22.550Z,97577.16
2023-02-12T06:01:24.857Z,97577.78
2023-02-12T06:06:27.164Z,97591.78
2023-02-12T06:11:29.528Z,97583.47
2023-02-12T06:16:31.856Z,97592.97
2023-02-12T06:21:34.568Z,97597.72
2023-02-12T06:26:36.866Z,97601.50
2023-02-12T06:31:39.270Z,97607.50
2023-02-12T06:36:41.623Z,97619.44
2023-02-12T06:41:43.901Z,97614.44
2023-02-12T06:46:46.268Z,97627.41
2023-02-12T06:51:48.660Z,97629.28
2023-02-12T06:56:50.951Z,97628.00
2023-02-12T07:01:53.303Z,97625.47
2023-02-12T07:06:55.580Z,97624.28
2023-02-12T07:11:58.004Z,97621.16
2023-02-12T07:17:03.656Z,97620.63
2023-02-12T07:22:06.046Z,97619.69
2023-02-12T07:27:08.469Z,97624.19
2023-02-12T07:32:10.891Z,97612.94
2023-02-12T07:37:13.230Z,97600.25
2023-02-12T07:42:15.567Z,97600.47
2023-02-12T07:47:17.830Z,97601.06
2023-02-12T07:52:20.261Z,97597.72
2023-02-12T07:57:22.673Z,97601.88
2023-02-12T08:02:26.034Z,97603.66
2023-02-12T08:07:28.477Z,97596.91
2023-02-12T08:12:30.782Z,97597.88
2023-02-12T08:17:33.088Z,97590.69
2023-02-12T08:22:35.384Z,97589.19
2023-02-12T08:27:37.703Z,97595.63
2023-02-12T08:32:40.015Z,97591.41
2023-02-12T08:37:42.310Z,97586.94
2023-02-12T08:42:44.639Z,97582.97
2023-02-12T08:47:46.922Z,97584.84
2023-02-12T08:52:49.249Z,97579.88
2023-02-12T08:57:53.276Z,97576.44
2023-02-12T09:02:55.612Z,97574.97
2023-02-12T09:07:57.929Z,97575.53
2023-02-12T09:13:00.236Z,97575.28
2023-02-12T09:18:04.011Z,97579.63
2023-02-12T09:23:06.918Z,97592.53
2023-02-12T09:28:09.265Z,97589.47
2023-02-12T09:33:11.576Z,97592.97
2023-02-12T09:38:13.977Z,97590.41
2023-02-12T09:43:17.925Z,97588.56
2023-02-12T09:48:20.191Z,97590.31
2023-02-12T09:53:22.487Z,97591.84
2023-02-12T09:58:24.875Z,97574.78
2023-02-12T10:03:28.324Z,97579.88
2023-02-12T10:08:30.720Z,97590.81
2023-02-12T10:13:35.220Z,97587.53
2023-02-12T10:18:37.598Z,97587.13
2023-02-12T10:23:39.959Z,97592.50
2023-02-12T10:28:42.466Z,97591.25
2023-02-12T10:33:44.823Z,97591.03
2023-02-12T10:38:47.325Z,97597.41
2023-02-12T10:43:49.691Z,97590.44
2023-02-12T10:48:54.016Z,97595.31
2023-02-12T10:53:56.376Z,97602.50
2023-02-12T10:58:59.453Z,97589.59
2023-02-12T11:04:01.852Z,97592.88
2023-02-12T11:09:04.735Z,97587.97
2023-02-12T11:14:07.116Z,97584.25
2023-02-12T11:19:09.466Z,97571.69
2023-02-12T11:24:11.853Z,97568.56
2023-02-12T11:29:14.287Z,97565.06
2023-02-12T11:34:16.934Z,97556.97
2023-02-12T11:39:19.282Z,97564.47
2023-02-12T11:44:21.723Z,97564.50
2023-02-12T11:49:24.097Z,97560.81
2023-02-12T11:54:26.641Z,97559.78
2023-02-12T11:59:28.928Z,97552.97
2023-02-12T12:04:31.837Z,97562.81
2023-02-12T12:09:34.841Z,97546.19
2023-02-12T12:14:57.240Z,97547.84
2023-02-12T12:19:59.631Z,97539.66
2023-02-12T12:25:01.926Z,97520.31
2023-02-12T12:30:06.882Z,97519.94
2023-02-12T12:35:09.280Z,97512.72
2023-02-12T12:40:11.592Z,97514.63
2023-02-12T12:45:13.981Z,97518.84
2023-02-12T12:50:16.262Z,97518.44
2023-02-12T12:55:18.622Z,97515.22
2023-02-12T13:00:22.306Z,97514.88
2023-02-12T13:05:25.541Z,97515.09
2023-02-12T13:10:27.842Z,97515.09
2023-02-12T13:15:30.223Z,97514.72
2023-02-12T13:20:32.500Z,97504.22
2023-02-12T13:25:34.879Z,97501.69
2023-02-12T13:30:37.140Z,97503.97
2023-02-12T13:35:39.442Z,97506.34
2023-02-12T13:40:42.053Z,97501.78
2023-02-12T13:45:44.708Z,97499.19
2023-02-12T13:50:47.117Z,97494.81
2023-02-12T13:55:49.456Z,97502.75
2023-02-12T14:00:51.727Z,97496.66
2023-02-12T14:05:54.299Z,97497.88
2023-02-12T14:10:57.027Z,97501.81
2023-02-12T14:15:59.890Z,97499.13
2023-02-12T14:21:02.375Z,97502.00
2023-02-12T14:26:05.020Z,97504.91
2023-02-12T14:31:07.353Z,97513.06
2023-02-12T14:36:09.720Z,97508.31
2023-02-12T14:41:32.056Z,97500.31
2023-02-12T14:46:34.414Z,97507.25
2023-02-12T14:51:36.732Z,97504.75
2023-02-12T14:56:39.007Z,97513.16
2023-02-12T15:01:41.334Z,97511.53
2023-02-12T15:06:43.637Z,97508.41
2023-02-12T15:11:46.004Z,97504.94
2023-02-12T15:16:48.274Z,97498.53
2023-02-12T15:21:50.631Z,97497.72
2023-02-12T15:26:52.949Z,97494.81
2023-02-12T15:31:55.378Z,97488.41
2023-02-12T15:36:57.730Z,97493.13
2023-02-12T15:42:00.009Z,97501.25
2023-02-12T15:47:02.312Z,97488.47
2023-02-12T15:52:04.657Z,97496.22
2023-02-12T15:57:06.971Z,97485.53
2023-02-12T16:02:09.356Z,97491.97
2023-02-12T16:07:11.652Z,97494.81
2023-02-12T16:12:14.039Z,97492.66
2023-02-12T16:17:16.726Z,97488.13
2023-02-12T16:22:19.622Z,97487.03
2023-02-12T16:27:21.952Z,97503.06
2023-02-12T16:32:24.358Z,97500.09
2023-02-12T16:37:26.728Z,97503.72
2023-02-12T16:42:29.654Z,97513.19
2023-02-12T16:47:32.086Z,97524.19
2023-02-12T16:52:34.476Z,97523.28
2023-02-12T16:57:36.821Z,97523.38
2023-02-12T17:02:39.160Z,97530.56
2023-02-12T17:07:41.623Z,97523.97
2023-02-12T17:12:43.932Z,97528.78
2023-02-12T17:17:46.235Z,97530.25
2023-02-12T17:22:48.554Z,97545.72
2023-02-12T17:27:50.893Z,97537.84
2023-02-12T17:32:53.223Z,97532.47
2023-02-12T17:37:55.581Z,97538.69
2023-02-12T17:42:58.560Z,97543.97
2023-02-12T17:48:01.131Z,97550.78
2023-02-12T17:53:03.520Z,97544.34
2023-02-12T17:58:05.923Z,97549.03
2023-02-12T18:03:08.372Z,97547.00
2023-02-12T18:08:10.682Z,97554.19
2023-02-12T18:13:13.776Z,97553.78
2023-02-12T18:18:17.893Z,97561.19
2023-02-12T18:23:20.323Z,97560.28
2023-02-12T18:28:22.825Z,97558.22
2023-02-12T18:33:25.201Z,97560.25
2023-02-12T18:38:27.681Z,97555.66
2023-02-12T18:43:30.078Z,97542.91
2023-02-12T18:48:33.196Z,97543.50
2023-02-12T18:53:35.533Z,97553.84
2023-02-12T18:58:38.138Z,97553.84
2023-02-12T19:03:40.573Z,97544.31
2023-02-12T19:08:42.969Z,97544.63
2023-02-12T19:13:45.377Z,97550.34
2023-02-12T19:18:47.947Z,97542.09
2023-02-12T19:23:50.293Z,97539.78
2023-02-12T19:28:52.909Z,97545.63
2023-02-12T19:33:55.367Z,97550.78
2023-02-12T19:38:57.774Z,97547.13
2023-02-12T19:44:00.141Z,97542.69
2023-02-12T19:49:02.556Z,97544.84
2023-02-12T19:54:05.248Z,97545.84
2023-02-12T19:59:07.562Z,97547.50
2023-02-12T20:04:09.951Z,97532.41
2023-02-12T20:09:12.434Z,97534.56
2023-02-12T20:14:14.851Z,97535.56
2023-02-12T20:19:17.477Z,97539.22
2023-02-12T20:24:19.868Z,97538.44
2023-02-12T20:29:22.348Z,97540.44
2023-02-12T20:34:24.782Z,97542.91
2023-02-12T20:39:27.175Z,97547.25
2023-02-12T20:44:29.764Z,97545.28
2023-02-12T20:49:32.130Z,97544.91
2023-02-12T20:54:34.660Z,97549.34
2023-02-12T20:59:37.053Z,97557.78
2023-02-12T21:04:39.414Z,97562.75
2023-02-12T21:09:41.799Z,97552.81
2023-02-12T21:14:44.135Z,97562.81
2023-02-12T21:19:46.547Z,97563.66
2023-02-12T21:24:48.937Z,97552.22
2023-02-12T21:29:51.435Z,97557.84
2023-02-12T21:34:53.761Z,97557.22
2023-02-12T21:39:56.169Z,97562.66
2023-02-12T21:44:58.568Z,97563.50
2023-02-12T21:50:00.977Z,97564.50
2023-02-12T21:55:03.434Z,97570.31
2023-02-12T22:00:06.370Z,97571.78
2023-02-12T22:05:09.022Z,97572.44
2023-02-12T22:10:11.422Z,97570.13
2023-02-12T22:15:13.887Z,97569.13
2023-02-12T22:20:16.543Z,97567.81
2023-02-12T22:25:18.895Z,97574.09
2023-02-12T22:30:21.216Z,97577.59
2023-02-12T22:35:23.557Z,97570.13
2023-02-12T22:40:25.941Z,97582.06
2023-02-12T22:45:28.488Z,97578.94
2023-02-12T22:50:31.003Z,97578.59
2023-02-12T22:55:33.371Z,97570.81
2023-02-12T23:00:35.715Z,97571.81
2023-02-12T23:05:38.140Z,97571.47
2023-02-12T23:10:40.689Z,97564.53
2023-02-12T23:15:43.157Z,97570.16
2023-02-12T23:20:45.568Z,97573.81
2023-02-12T23:25:47.989Z,97568.50
2023-02-12T23:30:50.726Z,97569.97
2023-02-12T23:35:53.276Z,97571.13
2023-02-12T23:40:56.112Z,97557.75
2023-02-12T23:45:58.820Z,97556.56
2023-02-12T23:51:01.387Z,97555.44
2023-02-12T23:56:03.849Z,97560.25
